Time;durP1;ratioP1;P1;durP2;ratioP2;P2;SDS_P1;SDS_P2;PMS_P1;PMS_P2;Temp;Humidity;BMP_temperature;BMP_pressure;BME280_temperature;BME280_humidity;BME280_pressure;Samples;Min_cycle;Max_cycle;Signal;HPM_P1;HPM_P2
2021/06/15 00:01:35;;;;;;;18.05;10.18;;;;;;;;;;5049378;28;20021;-65
2021/06/15 00:04:01;;;;;;;19.20;10.65;;;;;;;;;;5042685;28;20037;-65
2021/06/15 00:06:27;;;;;;;21.05;11.50;;;;;;;;;;5045753;28;20494;-65
2021/06/15 00:08:53;;;;;;;26.63;11.60;;;;;;;;;;5033623;28;20017;-64
2021/06/15 00:11:19;;;;;;;22.65;11.07;;;;;;;;;;5046077;28;20025;-65
2021/06/15 00:13:45;;;;;;;23.40;11.43;;;;;;;;;;5044709;28;20032;-65
2021/06/15 00:16:11;;;;;;;19.67;10.90;;;;;;;;;;5046518;28;20108;-65
2021/06/15 00:18:37;;;;;;;25.13;11.77;;;;;;;;;;5042700;28;20427;-65
2021/06/15 00:21:03;;;;;;;17.67;11.02;;;;;;;;;;5044888;28;20048;-65
2021/06/15 00:23:29;;;;;;;21.73;11.93;;;;;;;;;;5040645;28;20068;-65
2021/06/15 00:25:55;;;;;;;21.23;11.35;;;;;;;;;;5042307;28;20025;-65
2021/06/15 00:28:21;;;;;;;23.15;11.52;;;;;;;;;;5044416;28;20071;-65
2021/06/15 00:30:47;;;;;;;18.65;11.05;;;;;;;;;;5044956;28;20388;-64
2021/06/15 00:33:13;;;;;;;19.42;11.70;;;;;;;;;;5043493;28;20065;-65
2021/06/15 00:35:39;;;;;;;19.25;12.70;;;;;;;;;;5046022;28;20053;-64
2021/06/15 00:38:06;;;;;;;18.58;11.70;;;;;;;;;;5046325;28;20097;-65
2021/06/15 00:40:32;;;;;;;23.83;13.35;;;;;;;;;;5047375;28;20484;-64
2021/06/15 00:42:58;;;;;;;24.15;12.68;;;;;;;;;;5044879;28;20037;-65
2021/06/15 00:45:26;;;;;;;19.83;12.27;;;;;;;;;;5040066;28;20020;-64
2021/06/15 00:47:52;;;;;;;23.58;12.60;;;;;;;;;;5047765;28;20033;-65
2021/06/15 00:50:19;;;;;;;22.70;13.63;;;;;;;;;;5043438;28;20020;-65
2021/06/15 00:52:45;;;;;;;21.83;13.05;;;;;;;;;;5047802;28;20491;-65
2021/06/15 00:55:11;;;;;;;25.33;13.90;;;;;;;;;;5038025;28;20407;-65
2021/06/15 00:57:37;;;;;;;27.58;13.85;;;;;;;;;;5036926;28;20107;-65
2021/06/15 01:00:05;;;;;;;22.73;13.65;;;;;;;;;;5036751;28;20017;-65
2021/06/15 01:02:31;;;;;;;24.95;13.38;;;;;;;;;;5041294;28;20120;-64
2021/06/15 01:05:00;;;;;;;24.17;13.45;;;;;;;;;;5044409;28;20021;-64
2021/06/15 01:07:33;;;;;;;23.67;13.80;;;;;;;;;;5044083;28;21024;-64
2021/06/15 01:10:02;;;;;;;28.38;14.15;;;;;;;;;;5046403;28;20362;-65
2021/06/15 01:12:41;;;;;;;22.33;12.98;;;;;;;;;;5044546;28;20021;-65
2021/06/15 01:15:15;;;;;;;22.70;14.07;;;;;;;;;;5044186;28;20021;-64
2021/06/15 01:17:48;;;;;;;23.40;13.65;;;;;;;;;;5032377;28;20044;-65
2021/06/15 01:20:17;;;;;;;21.58;13.02;;;;;;;;;;5036170;28;20025;-64
2021/06/15 01:22:48;;;;;;;21.55;12.75;;;;;;;;;;5035378;28;20029;-65
2021/06/15 01:25:32;;;;;;;22.27;11.73;;;;;;;;;;5045492;28;20029;-65
2021/06/15 01:28:02;;;;;;;21.92;12.30;;;;;;;;;;5039980;28;20018;-65
2021/06/15 01:30:33;;;;;;;19.50;12.15;;;;;;;;;;5047109;28;20033;-65
2021/06/15 01:33:03;;;;;;;23.98;12.63;;;;;;;;;;5036890;28;20041;-64
2021/06/15 01:35:30;;;;;;;27.50;13.20;;;;;;;;;;5045041;28;20088;-65
2021/06/15 01:37:59;;;;;;;22.30;13.70;;;;;;;;;;5047182;28;20469;-65
2021/06/15 01:40:34;;;;;;;22.48;13.02;;;;;;;;;;5040832;28;20473;-65
2021/06/15 01:43:03;;;;;;;22.83;12.70;;;;;;;;;;5036973;28;20203;-65
2021/06/15 01:45:37;;;;;;;25.27;13.82;;;;;;;;;;5045659;28;20021;-65
2021/06/15 01:48:06;;;;;;;19.42;12.65;;;;;;;;;;5052899;28;20022;-64
2021/06/15 01:50:37;;;;;;;28.52;13.68;;;;;;;;;;5043440;28;20025;-65
2021/06/15 01:53:08;;;;;;;23.80;13.20;;;;;;;;;;5041212;28;20112;-64
2021/06/15 01:55:35;;;;;;;21.52;13.20;;;;;;;;;;5046780;28;20483;-64
2021/06/15 01:58:02;;;;;;;23.17;13.95;;;;;;;;;;5041137;28;20069;-65
2021/06/15 02:00:28;;;;;;;23.48;13.27;;;;;;;;;;5039202;28;20469;-65
2021/06/15 02:02:55;;;;;;;20.75;12.93;;;;;;;;;;5057504;28;20095;-65
2021/06/15 02:05:26;;;;;;;26.23;13.43;;;;;;;;;;5032881;28;20079;-65
2021/06/15 02:07:52;;;;;;;20.58;13.45;;;;;;;;;;5040466;28;20024;-65
2021/06/15 02:10:19;;;;;;;22.83;13.48;;;;;;;;;;5044608;28;20420;-65
2021/06/15 02:12:47;;;;;;;24.33;14.77;;;;;;;;;;5045566;28;20064;-65
2021/06/15 02:15:17;;;;;;;22.65;14.30;;;;;;;;;;5043242;28;20410;-64
2021/06/15 02:17:44;;;;;;;23.55;13.70;;;;;;;;;;5047345;28;20116;-65
2021/06/15 02:20:11;;;;;;;26.67;15.60;;;;;;;;;;5039876;28;20076;-64
2021/06/15 02:22:40;;;;;;;22.80;14.10;;;;;;;;;;5044593;28;20041;-64
2021/06/15 02:25:07;;;;;;;22.98;14.18;;;;;;;;;;5042366;28;20112;-65
2021/06/15 02:27:33;;;;;;;25.60;14.88;;;;;;;;;;5041774;28;20037;-65
2021/06/15 02:29:59;;;;;;;23.15;13.95;;;;;;;;;;5046891;28;20030;-65
2021/06/15 02:32:28;;;;;;;25.65;14.52;;;;;;;;;;5050653;28;20044;-65
2021/06/15 02:34:57;;;;;;;26.42;15.18;;;;;;;;;;5045199;28;20393;-65
2021/06/15 02:37:26;;;;;;;26.52;14.32;;;;;;;;;;5061067;28;20037;-64
2021/06/15 02:39:52;;;;;;;26.17;14.32;;;;;;;;;;5037582;28;20128;-64
2021/06/15 02:42:19;;;;;;;26.13;15.00;;;;;;;;;;5040465;28;20024;-65
2021/06/15 02:44:47;;;;;;;24.88;15.02;;;;;;;;;;5048143;28;20061;-65
2021/06/15 02:47:14;;;;;;;24.13;15.07;;;;;;;;;;5046661;28;20031;-65
2021/06/15 02:49:48;;;;;;;24.70;15.40;;;;;;;;;;5045421;28;20029;-65
2021/06/15 02:52:16;;;;;;;27.25;15.45;;;;;;;;;;5047570;28;20021;-65
2021/06/15 02:54:56;;;;;;;28.70;15.77;;;;;;;;;;5045536;28;20052;-65
2021/06/15 02:57:22;;;;;;;34.30;17.95;;;;;;;;;;5042220;28;20052;-64
2021/06/15 02:59:48;;;;;;;34.17;16.80;;;;;;;;;;5041331;28;20025;-65
2021/06/15 03:02:14;;;;;;;32.28;18.67;;;;;;;;;;5048968;28;20018;-65
2021/06/15 03:04:45;;;;;;;31.33;18.58;;;;;;;;;;5048658;28;20037;-65
2021/06/15 03:07:11;;;;;;;29.33;17.67;;;;;;;;;;5036692;28;20377;-64
2021/06/15 03:09:37;;;;;;;36.08;20.27;;;;;;;;;;5048050;28;20033;-64
2021/06/15 03:12:08;;;;;;;35.75;19.10;;;;;;;;;;5049552;28;20468;-65
2021/06/15 03:14:35;;;;;;;36.67;20.05;;;;;;;;;;5042866;28;20068;-65
2021/06/15 03:17:03;;;;;;;47.28;20.55;;;;;;;;;;5044655;28;20025;-64
2021/06/15 03:19:36;;;;;;;36.47;21.23;;;;;;;;;;5043249;28;20489;-64
2021/06/15 03:22:10;;;;;;;34.65;19.75;;;;;;;;;;5048555;28;20221;-65
2021/06/15 03:24:40;;;;;;;33.90;19.08;;;;;;;;;;5038335;28;20441;-65
2021/06/15 03:27:06;;;;;;;;;;;;;;;;;;5038970;28;20450;-64
2021/06/15 03:29:37;;;;;;;31.25;19.92;;;;;;;;;;5049430;28;19963;-65
2021/06/15 03:32:06;;;;;;;36.97;20.70;;;;;;;;;;5043581;28;20601;-65
2021/06/15 03:34:32;;;;;;;30.98;19.75;;;;;;;;;;5047259;28;20028;-65
2021/06/15 03:37:00;;;;;;;38.42;22.08;;;;;;;;;;5047856;28;20480;-65
2021/06/15 03:39:30;;;;;;;37.05;20.08;;;;;;;;;;5047734;28;20039;-65
2021/06/15 03:41:57;;;;;;;32.85;19.70;;;;;;;;;;5048553;28;20059;-65
2021/06/15 03:44:24;;;;;;;33.30;20.85;;;;;;;;;;5047562;28;20041;-64
2021/06/15 03:46:52;;;;;;;36.15;19.88;;;;;;;;;;5035013;28;20029;-65
2021/06/15 03:49:21;;;;;;;34.13;21.17;;;;;;;;;;5041697;28;20478;-65
2021/06/15 03:51:49;;;;;;;33.08;19.88;;;;;;;;;;5040759;28;20037;-65
2021/06/15 03:54:15;;;;;;;31.00;19.65;;;;;;;;;;5043619;28;20029;-64
2021/06/15 03:56:49;;;;;;;30.17;19.48;;;;;;;;;;5046257;28;20095;-64
2021/06/15 03:59:23;;;;;;;37.28;21.00;;;;;;;;;;5038640;28;20044;-65
2021/06/15 04:01:51;;;;;;;33.45;20.35;;;;;;;;;;5048768;28;20025;-65
2021/06/15 04:04:18;;;;;;;33.53;18.95;;;;;;;;;;5045618;28;20563;-65
2021/06/15 04:06:49;;;;;;;32.40;18.13;;;;;;;;;;5045243;28;20390;-65
2021/06/15 04:09:15;;;;;;;32.88;18.98;;;;;;;;;;5037839;28;20511;-65
2021/06/15 04:11:42;;;;;;;29.60;18.25;;;;;;;;;;5037129;28;20040;-65
2021/06/15 04:14:11;;;;;;;33.03;18.15;;;;;;;;;;5037550;28;20032;-64
2021/06/15 04:16:38;;;;;;;37.63;19.92;;;;;;;;;;5033559;28;20030;-65
2021/06/15 04:19:05;;;;;;;37.67;19.88;;;;;;;;;;5040583;28;20029;-65
2021/06/15 04:21:33;;;;;;;34.20;20.27;;;;;;;;;;5046536;28;20032;-65
2021/06/15 04:24:03;;;;;;;30.92;17.83;;;;;;;;;;5039928;28;20508;-65
2021/06/15 04:26:34;;;;;;;36.30;19.60;;;;;;;;;;5029950;28;20393;-65
2021/06/15 04:29:01;;;;;;;35.58;19.05;;;;;;;;;;5039434;28;20538;-66
2021/06/15 04:31:29;;;;;;;32.75;18.00;;;;;;;;;;5035381;28;20032;-65
2021/06/15 04:33:56;;;;;;;31.35;17.42;;;;;;;;;;5036021;28;20165;-65
2021/06/15 04:36:22;;;;;;;32.65;19.02;;;;;;;;;;5038432;28;20429;-66
2021/06/15 04:38:52;;;;;;;30.75;16.95;;;;;;;;;;5038242;28;20029;-65
2021/06/15 04:41:20;;;;;;;30.70;16.52;;;;;;;;;;5047711;28;20484;-65
2021/06/15 04:43:49;;;;;;;30.50;16.02;;;;;;;;;;5036412;28;20044;-64
2021/06/15 04:46:15;;;;;;;27.35;15.32;;;;;;;;;;5034406;28;20543;-65
2021/06/15 04:48:42;;;;;;;33.17;16.73;;;;;;;;;;5038033;28;20043;-65
2021/06/15 04:51:09;;;;;;;32.70;17.75;;;;;;;;;;5059525;28;20031;-65
2021/06/15 04:53:39;;;;;;;36.65;17.27;;;;;;;;;;5044808;28;20032;-65
2021/06/15 04:56:06;;;;;;;31.42;16.05;;;;;;;;;;5039224;28;20123;-66
2021/06/15 04:58:33;;;;;;;31.25;18.70;;;;;;;;;;5034228;28;20037;-65
2021/06/15 05:01:02;;;;;;;33.65;18.05;;;;;;;;;;5039644;28;20060;-65
2021/06/15 05:03:29;;;;;;;33.05;17.65;;;;;;;;;;5033747;28;20488;-66
2021/06/15 05:05:58;;;;;;;30.83;18.40;;;;;;;;;;5046845;28;20049;-65
2021/06/15 05:08:26;;;;;;;31.73;18.77;;;;;;;;;;5040199;28;20097;-65
2021/06/15 05:10:56;;;;;;;35.38;17.23;;;;;;;;;;5044273;28;20032;-65
2021/06/15 05:13:22;;;;;;;27.55;16.42;;;;;;;;;;5048594;28;20100;-65
2021/06/15 05:15:50;;;;;;;28.85;17.42;;;;;;;;;;5045226;28;20080;-65
2021/06/15 05:18:16;;;;;;;32.85;18.17;;;;;;;;;;5035996;28;20029;-65
2021/06/15 05:20:42;;;;;;;31.33;16.23;;;;;;;;;;5043357;28;20037;-65
2021/06/15 05:23:23;;;;;;;28.25;16.50;;;;;;;;;;5044597;28;20041;-65
2021/06/15 05:25:49;;;;;;;32.60;16.42;;;;;;;;;;5042392;28;20136;-65
2021/06/15 05:28:15;;;;;;;31.42;17.65;;;;;;;;;;5041643;28;20021;-65
2021/06/15 05:30:41;;;;;;;27.35;17.27;;;;;;;;;;5040486;28;20037;-65
2021/06/15 05:33:07;;;;;;;29.92;17.58;;;;;;;;;;5039819;28;20025;-65
2021/06/15 05:35:33;;;;;;;31.67;18.70;;;;;;;;;;5047873;28;20032;-65
2021/06/15 05:37:59;;;;;;;29.27;16.38;;;;;;;;;;5043291;28;20028;-65
2021/06/15 05:40:25;;;;;;;27.52;16.13;;;;;;;;;;5037994;28;20017;-66
2021/06/15 05:42:51;;;;;;;28.77;17.85;;;;;;;;;;5032873;28;20433;-72
2021/06/15 05:45:17;;;;;;;26.55;16.27;;;;;;;;;;5036506;28;20040;-71
2021/06/15 05:47:44;;;;;;;31.63;17.77;;;;;;;;;;5032130;28;20040;-71
2021/06/15 05:50:12;;;;;;;25.08;15.85;;;;;;;;;;5039843;28;20028;-71
2021/06/15 05:52:38;;;;;;;26.38;16.90;;;;;;;;;;5042167;28;20032;-71
2021/06/15 05:55:04;;;;;;;28.05;17.27;;;;;;;;;;5035072;28;20029;-71
2021/06/15 05:57:31;;;;;;;31.50;17.20;;;;;;;;;;5040131;28;20072;-71
2021/06/15 05:59:58;;;;;;;29.02;17.58;;;;;;;;;;5034179;28;20025;-71
2021/06/15 06:02:26;;;;;;;28.55;18.63;;;;;;;;;;5045938;28;20028;-71
2021/06/15 06:10:06;;;;;;;34.70;19.55;;;;;;;;;;5039140;28;20047;-71
2021/06/15 06:12:32;;;;;;;33.38;20.17;;;;;;;;;;5045105;28;20033;-71
2021/06/15 06:14:58;;;;;;;33.25;19.63;;;;;;;;;;5036653;28;20030;-71
2021/06/15 06:17:25;;;;;;;31.55;18.70;;;;;;;;;;5048502;28;20053;-71
2021/06/15 06:19:51;;;;;;;29.23;18.63;;;;;;;;;;5047133;28;20088;-71
2021/06/15 06:22:18;;;;;;;37.50;21.50;;;;;;;;;;5046789;28;20115;-71
2021/06/15 06:24:44;;;;;;;33.47;20.23;;;;;;;;;;5050865;28;20025;-71
2021/06/15 06:27:10;;;;;;;38.03;20.35;;;;;;;;;;5037932;28;20135;-71
2021/06/15 06:29:36;;;;;;;35.22;19.02;;;;;;;;;;5050605;28;20036;-71
2021/06/15 06:32:04;;;;;;;29.70;18.15;;;;;;;;;;5041408;28;20033;-71
2021/06/15 06:34:30;;;;;;;35.63;19.95;;;;;;;;;;5039879;28;20018;-71
2021/06/15 06:36:56;;;;;;;28.50;17.30;;;;;;;;;;5041267;28;20063;-71
2021/06/15 06:39:22;;;;;;;36.17;20.05;;;;;;;;;;5044173;28;20028;-71
2021/06/15 06:41:49;;;;;;;33.67;20.02;;;;;;;;;;5047747;28;20025;-71
2021/06/15 06:44:15;;;;;;;35.92;19.88;;;;;;;;;;5040539;28;20025;-71
2021/06/15 06:46:41;;;;;;;36.03;20.70;;;;;;;;;;5050864;28;20028;-71
2021/06/15 06:49:07;;;;;;;32.00;20.30;;;;;;;;;;5048919;28;20032;-71
2021/06/15 06:51:33;;;;;;;32.20;19.63;;;;;;;;;;5050743;28;20046;-71
2021/06/15 06:54:00;;;;;;;33.08;19.17;;;;;;;;;;5039897;28;20088;-71
2021/06/15 06:56:26;;;;;;;33.80;19.42;;;;;;;;;;5045967;28;20511;-71
2021/06/15 06:58:52;;;;;;;30.42;18.90;;;;;;;;;;5047777;28;20132;-73
2021/06/15 07:01:18;;;;;;;35.10;18.90;;;;;;;;;;5046213;28;20045;-71
2021/06/15 07:03:44;;;;;;;35.13;18.17;;;;;;;;;;5048794;28;20040;-71
2021/06/15 07:06:11;;;;;;;36.95;20.70;;;;;;;;;;5044157;28;20030;-71
2021/06/15 07:08:37;;;;;;;27.98;16.67;;;;;;;;;;5034428;28;20034;-71
2021/06/15 07:11:03;;;;;;;35.88;20.20;;;;;;;;;;5035499;28;20401;-71
2021/06/15 07:13:29;;;;;;;29.45;17.15;;;;;;;;;;5041873;28;20032;-71
2021/06/15 07:15:55;;;;;;;29.38;16.48;;;;;;;;;;5046201;28;20025;-71
2021/06/15 07:18:21;;;;;;;29.67;16.92;;;;;;;;;;5041405;28;20388;-71
2021/06/15 07:20:47;;;;;;;28.88;18.55;;;;;;;;;;5047082;28;20750;-71
2021/06/15 07:23:14;;;;;;;29.08;17.02;;;;;;;;;;5030622;28;20108;-70
2021/06/15 07:25:40;;;;;;;30.52;16.88;;;;;;;;;;5033648;28;20018;-71
2021/06/15 07:28:06;;;;;;;30.40;18.13;;;;;;;;;;5048915;28;20026;-71
2021/06/15 07:30:32;;;;;;;32.92;18.10;;;;;;;;;;5048328;28;20061;-71
2021/06/15 07:32:58;;;;;;;34.70;20.42;;;;;;;;;;5037949;28;20060;-71
2021/06/15 07:35:26;;;;;;;37.75;21.15;;;;;;;;;;5049439;28;20388;-71
2021/06/15 07:37:52;;;;;;;34.20;21.08;;;;;;;;;;5044086;28;20123;-71
2021/06/15 07:40:22;;;;;;;31.92;20.80;;;;;;;;;;5053781;28;20029;-71
2021/06/15 07:42:49;;;;;;;32.72;19.55;;;;;;;;;;5046159;28;20449;-71
2021/06/15 07:45:15;;;;;;;31.42;20.33;;;;;;;;;;5040979;28;20461;-71
2021/06/15 07:47:41;;;;;;;32.35;18.45;;;;;;;;;;5032148;28;20505;-71
2021/06/15 07:50:09;;;;;;;29.65;17.50;;;;;;;;;;5050846;28;20038;-71
2021/06/15 07:52:35;;;;;;;32.45;19.45;;;;;;;;;;5044715;28;20381;-71
2021/06/15 07:55:01;;;;;;;31.17;21.10;;;;;;;;;;5043652;28;20112;-71
2021/06/15 07:57:28;;;;;;;34.20;21.83;;;;;;;;;;5046159;28;20057;-71
2021/06/15 07:59:53;;;;;;;31.77;18.77;;;;;;;;;;5040825;28;20340;-71
2021/06/15 08:02:19;;;;;;;30.20;16.45;;;;;;;;;;5041302;28;20260;-71
2021/06/15 08:04:46;;;;;;;27.58;16.05;;;;;;;;;;5043692;28;20451;-71
2021/06/15 08:07:12;;;;;;;27.33;16.05;;;;;;;;;;5042761;28;20025;-71
2021/06/15 08:09:38;;;;;;;33.70;19.08;;;;;;;;;;5046012;28;20028;-71
2021/06/15 08:12:04;;;;;;;30.02;18.48;;;;;;;;;;5035599;28;20025;-71
2021/06/15 08:14:30;;;;;;;27.77;18.88;;;;;;;;;;5035452;28;20238;-71
2021/06/15 08:16:56;;;;;;;31.65;19.00;;;;;;;;;;5048246;28;20032;-71
2021/06/15 08:19:22;;;;;;;28.92;16.63;;;;;;;;;;5035659;28;20413;-72
2021/06/15 08:21:48;;;;;;;25.67;16.40;;;;;;;;;;5044544;28;20025;-72
2021/06/15 08:24:15;;;;;;;24.85;14.80;;;;;;;;;;5036050;28;20360;-71
2021/06/15 08:26:42;;;;;;;29.23;17.08;;;;;;;;;;5040388;28;20068;-71
2021/06/15 08:29:08;;;;;;;26.15;16.23;;;;;;;;;;5042828;28;20060;-72
2021/06/15 08:31:34;;;;;;;23.90;14.10;;;;;;;;;;5038312;28;20025;-72
2021/06/15 08:34:00;;;;;;;28.10;17.30;;;;;;;;;;5042284;28;20029;-72
2021/06/15 08:36:26;;;;;;;22.67;13.20;;;;;;;;;;5038726;28;20013;-72
2021/06/15 08:38:53;;;;;;;24.17;13.27;;;;;;;;;;5039583;28;20411;-72
2021/06/15 08:41:19;;;;;;;22.17;12.70;;;;;;;;;;5038739;28;20539;-72
2021/06/15 08:43:46;;;;;;;19.45;12.25;;;;;;;;;;5044424;28;20123;-72
2021/06/15 08:46:12;;;;;;;21.90;14.50;;;;;;;;;;5034507;28;20022;-72
2021/06/15 08:48:38;;;;;;;23.95;14.18;;;;;;;;;;5040800;28;20021;-71
2021/06/15 08:51:04;;;;;;;23.95;14.35;;;;;;;;;;5035145;28;20048;-72
2021/06/15 08:53:36;;;;;;;24.02;16.27;;;;;;;;;;5038338;28;20468;-72
2021/06/15 08:56:21;;;;;;;26.35;17.98;;;;;;;;;;5035049;28;20057;-72
2021/06/15 08:59:10;;;;;;;28.80;16.17;;;;;;;;;;5046320;28;20256;-72
2021/06/15 09:01:36;;;;;;;23.73;15.77;;;;;;;;;;5037649;28;20033;-71
2021/06/15 09:04:02;;;;;;;23.58;13.48;;;;;;;;;;5034839;28;20417;-71
2021/06/15 09:06:28;;;;;;;24.30;15.70;;;;;;;;;;5047722;28;20040;-72
2021/06/15 09:08:55;;;;;;;22.38;13.93;;;;;;;;;;5034887;28;20030;-71
2021/06/15 09:11:22;;;;;;;25.92;17.35;;;;;;;;;;5043327;28;20028;-72
2021/06/15 09:13:48;;;;;;;28.20;16.35;;;;;;;;;;5048069;28;20036;-72
2021/06/15 09:16:28;;;;;;;22.65;14.55;;;;;;;;;;5044258;28;20025;-72
2021/06/15 09:18:58;;;;;;;29.60;19.70;;;;;;;;;;5045378;28;20340;-71
2021/06/15 09:21:29;;;;;;;22.45;15.85;;;;;;;;;;5048808;28;20759;-72
2021/06/15 09:24:04;;;;;;;24.98;14.52;;;;;;;;;;5053003;28;20396;-72
2021/06/15 09:26:51;;;;;;;32.53;19.50;;;;;;;;;;5046848;28;20039;-71
2021/06/15 09:29:17;;;;;;;25.67;18.23;;;;;;;;;;5049651;28;20033;-73
2021/06/15 09:31:53;;;;;;;28.50;18.25;;;;;;;;;;5042582;28;20032;-72
2021/06/15 09:34:19;;;;;;;22.45;15.40;;;;;;;;;;5044641;28;20025;-72
2021/06/15 09:36:45;;;;;;;26.45;16.13;;;;;;;;;;5051630;28;20144;-72
2021/06/15 09:39:11;;;;;;;20.98;15.57;;;;;;;;;;5048072;28;20075;-72
2021/06/15 09:41:44;;;;;;;22.00;14.65;;;;;;;;;;5041558;28;20361;-72
2021/06/15 09:44:21;;;;;;;21.45;12.43;;;;;;;;;;5051800;28;20504;-72
2021/06/15 09:46:48;;;;;;;25.35;16.10;;;;;;;;;;5048011;28;20029;-72
2021/06/15 09:49:26;;;;;;;22.35;12.13;;;;;;;;;;5040202;28;20388;-71
2021/06/15 09:52:08;;;;;;;19.95;13.38;;;;;;;;;;5045040;28;20092;-72
2021/06/15 09:54:41;;;;;;;20.85;14.88;;;;;;;;;;5040909;28;20023;-72
2021/06/15 09:57:09;;;;;;;20.00;12.95;;;;;;;;;;5044785;28;20095;-72
2021/06/15 09:59:35;;;;;;;20.63;10.60;;;;;;;;;;5042130;28;20221;-72
2021/06/15 10:02:01;;;;;;;18.42;10.30;;;;;;;;;;5046585;28;20087;-72
2021/06/15 10:04:27;;;;;;;19.55;9.57;;;;;;;;;;5039563;28;20436;-72
2021/06/15 10:07:00;;;;;;;16.67;10.25;;;;;;;;;;5042286;28;20104;-72
2021/06/15 10:09:44;;;;;;;15.55;9.50;;;;;;;;;;5048210;28;20426;-72
2021/06/15 10:12:12;;;;;;;18.13;9.50;;;;;;;;;;5044504;28;20079;-72
2021/06/15 10:14:38;;;;;;;17.83;9.85;;;;;;;;;;5047848;28;20048;-73
2021/06/15 10:17:04;;;;;;;20.58;11.25;;;;;;;;;;5036755;28;20022;-72
2021/06/15 10:19:30;;;;;;;19.45;12.43;;;;;;;;;;5055933;28;20083;-72
2021/06/15 10:21:57;;;;;;;17.27;10.82;;;;;;;;;;5041864;28;20037;-72
2021/06/15 10:24:26;;;;;;;16.73;10.48;;;;;;;;;;5039290;28;20033;-72
2021/06/15 10:26:52;;;;;;;;;;;;;;;;;;5048071;28;20369;-72
2021/06/15 10:29:18;;;;;;;20.10;10.88;;;;;;;;;;5049560;28;19904;-72
2021/06/15 10:31:46;;;;;;;17.25;11.10;;;;;;;;;;5070492;28;20384;-72
2021/06/15 10:34:12;;;;;;;18.10;10.85;;;;;;;;;;5045065;28;20372;-72
2021/06/15 10:36:40;;;;;;;19.75;10.98;;;;;;;;;;5037443;28;20048;-71
2021/06/15 10:39:07;;;;;;;17.58;10.23;;;;;;;;;;5048545;28;20025;-72
2021/06/15 10:41:33;;;;;;;18.27;10.93;;;;;;;;;;5037406;28;20105;-73
2021/06/15 10:44:01;;;;;;;17.88;11.18;;;;;;;;;;5040758;28;20080;-73
2021/06/15 10:46:30;;;;;;;18.00;11.13;;;;;;;;;;5043504;28;20017;-73
2021/06/15 10:49:00;;;;;;;15.45;8.48;;;;;;;;;;5044921;28;20031;-72
2021/06/15 10:51:35;;;;;;;16.13;9.85;;;;;;;;;;5040373;28;20024;-72
2021/06/15 10:54:02;;;;;;;18.48;9.38;;;;;;;;;;5043455;28;20076;-72
2021/06/15 10:56:31;;;;;;;19.10;11.20;;;;;;;;;;5039380;28;20045;-72
2021/06/15 10:58:58;;;;;;;17.17;10.45;;;;;;;;;;5043271;28;20032;-73
2021/06/15 11:01:28;;;;;;;18.67;11.07;;;;;;;;;;5039860;28;20536;-72
2021/06/15 11:03:54;;;;;;;18.88;10.38;;;;;;;;;;5043435;28;20770;-73
2021/06/15 11:06:20;;;;;;;20.25;11.18;;;;;;;;;;5037116;28;20045;-73
2021/06/15 11:08:46;;;;;;;16.42;11.38;;;;;;;;;;5032491;28;20177;-73
2021/06/15 11:11:15;;;;;;;17.63;9.82;;;;;;;;;;5048130;28;20021;-73
2021/06/15 11:13:50;;;;;;;15.20;9.83;;;;;;;;;;5046505;28;20025;-72
2021/06/15 11:16:35;;;;;;;16.63;9.75;;;;;;;;;;5041880;28;20566;-72
2021/06/15 11:19:11;;;;;;;15.18;8.57;;;;;;;;;;5042800;28;21916;-72
2021/06/15 11:21:46;;;;;;;15.38;7.75;;;;;;;;;;5051825;28;20390;-73
2021/06/15 11:24:22;;;;;;;15.38;8.90;;;;;;;;;;5038987;28;20033;-73
2021/06/15 11:26:49;;;;;;;12.77;7.70;;;;;;;;;;5037241;28;20104;-73
2021/06/15 11:29:35;;;;;;;14.43;7.03;;;;;;;;;;5032901;28;20034;-73
2021/06/15 11:32:13;;;;;;;11.52;6.07;;;;;;;;;;5040442;28;20026;-72
2021/06/15 11:34:43;;;;;;;13.10;6.53;;;;;;;;;;5037593;28;20364;-72
2021/06/15 11:37:17;;;;;;;12.80;6.90;;;;;;;;;;5041094;28;20542;-73
2021/06/15 11:39:43;;;;;;;12.93;6.30;;;;;;;;;;5033835;28;20022;-73
2021/06/15 11:42:16;;;;;;;12.30;7.20;;;;;;;;;;5045589;28;20031;-73
2021/06/15 11:45:01;;;;;;;11.07;5.72;;;;;;;;;;5034601;28;20041;-73
2021/06/15 11:47:28;;;;;;;11.95;6.10;;;;;;;;;;5045863;28;20014;-73
2021/06/15 11:50:10;;;;;;;9.70;5.15;;;;;;;;;;5039082;28;20035;-73
2021/06/15 11:52:37;;;;;;;10.02;5.70;;;;;;;;;;5048591;28;20036;-72
2021/06/15 11:55:04;;;;;;;8.02;4.57;;;;;;;;;;5042221;28;20033;-73
2021/06/15 11:57:30;;;;;;;9.27;4.75;;;;;;;;;;5046680;28;20051;-73
2021/06/15 11:59:56;;;;;;;9.18;4.72;;;;;;;;;;5053262;28;20389;-73
2021/06/15 12:02:23;;;;;;;10.57;3.90;;;;;;;;;;5049420;28;20013;-73
2021/06/15 12:05:11;;;;;;;9.63;4.97;;;;;;;;;;5043781;28;20057;-72
2021/06/15 12:07:38;;;;;;;12.93;4.63;;;;;;;;;;5035585;28;20036;-73
2021/06/15 12:10:13;;;;;;;9.35;3.65;;;;;;;;;;5046026;28;20052;-73
2021/06/15 12:12:54;;;;;;;14.05;5.60;;;;;;;;;;5044944;28;20021;-73
2021/06/15 12:15:40;;;;;;;9.32;4.00;;;;;;;;;;5037506;28;20382;-72
2021/06/15 12:18:07;;;;;;;7.53;3.63;;;;;;;;;;5036708;28;20014;-72
2021/06/15 12:20:35;;;;;;;7.70;3.38;;;;;;;;;;5032857;28;20029;-72
2021/06/15 12:23:19;;;;;;;9.38;2.67;;;;;;;;;;5033232;28;20031;-72
2021/06/15 12:25:45;;;;;;;8.23;3.10;;;;;;;;;;5040132;28;20045;-73
2021/06/15 12:28:12;;;;;;;11.40;3.05;;;;;;;;;;5041721;28;20035;-73
2021/06/15 12:30:41;;;;;;;6.85;2.72;;;;;;;;;;5044036;28;20102;-73
2021/06/15 12:33:10;;;;;;;11.18;2.80;;;;;;;;;;5040359;28;20075;-72
2021/06/15 12:35:37;;;;;;;8.88;2.22;;;;;;;;;;5040368;28;20024;-73
2021/06/15 12:38:14;;;;;;;8.10;2.90;;;;;;;;;;5045103;28;20087;-73
2021/06/15 12:40:42;;;;;;;11.02;2.72;;;;;;;;;;5038292;28;20063;-73
2021/06/15 12:43:08;;;;;;;8.55;2.63;;;;;;;;;;5050705;28;20447;-73
2021/06/15 12:45:37;;;;;;;5.75;2.20;;;;;;;;;;5048699;28;20082;-73
2021/06/15 12:48:18;;;;;;;6.25;2.80;;;;;;;;;;5035750;28;20032;-73
2021/06/15 12:50:45;;;;;;;6.97;2.50;;;;;;;;;;5043165;28;20033;-73
2021/06/15 12:53:11;;;;;;;7.65;2.78;;;;;;;;;;5033481;28;20017;-73
2021/06/15 12:55:43;;;;;;;6.22;2.22;;;;;;;;;;5036381;28;20036;-72
2021/06/15 12:58:11;;;;;;;10.07;2.72;;;;;;;;;;5043982;28;20087;-72
2021/06/15 13:00:44;;;;;;;8.20;3.67;;;;;;;;;;5030275;28;20045;-72
2021/06/15 13:03:13;;;;;;;9.13;3.05;;;;;;;;;;5045081;28;20036;-73
2021/06/15 13:05:40;;;;;;;9.27;3.10;;;;;;;;;;5047644;28;20018;-73
2021/06/15 13:08:06;;;;;;;6.95;2.80;;;;;;;;;;5038874;28;20027;-73
2021/06/15 13:10:33;;;;;;;10.27;2.40;;;;;;;;;;5041280;28;20564;-73
2021/06/15 13:13:02;;;;;;;7.00;2.80;;;;;;;;;;5029671;28;20014;-73
2021/06/15 13:15:31;;;;;;;5.47;2.13;;;;;;;;;;5044962;28;20496;-73
2021/06/15 13:18:01;;;;;;;7.13;2.38;;;;;;;;;;5044132;28;20112;-73
2021/06/15 13:20:27;;;;;;;7.38;2.10;;;;;;;;;;5056088;28;20025;-73
2021/06/15 13:22:55;;;;;;;9.27;2.33;;;;;;;;;;5035870;28;20026;-73
2021/06/15 13:25:24;;;;;;;8.25;2.20;;;;;;;;;;5035095;28;20472;-73
2021/06/15 13:28:00;;;;;;;5.57;1.85;;;;;;;;;;5045391;28;20016;-73
2021/06/15 13:30:28;;;;;;;8.10;2.00;;;;;;;;;;5038165;28;20080;-73
2021/06/15 13:32:59;;;;;;;6.43;2.15;;;;;;;;;;5046927;28;20100;-72
2021/06/15 13:35:27;;;;;;;5.57;1.80;;;;;;;;;;5033737;28;20104;-73
2021/06/15 13:37:58;;;;;;;6.07;1.85;;;;;;;;;;5033530;28;20030;-73
2021/06/15 13:40:35;;;;;;;5.75;1.77;;;;;;;;;;5032763;28;20072;-73
2021/06/15 13:43:03;;;;;;;5.13;1.70;;;;;;;;;;5039887;28;20057;-72
2021/06/15 13:45:35;;;;;;;7.53;2.17;;;;;;;;;;5037008;28;20021;-72
2021/06/15 13:48:02;;;;;;;5.13;1.70;;;;;;;;;;5053652;28;20450;-72
2021/06/15 13:50:28;;;;;;;5.88;1.60;;;;;;;;;;5042892;28;20025;-72
2021/06/15 13:52:54;;;;;;;7.75;1.88;;;;;;;;;;5043880;28;20386;-73
2021/06/15 13:55:20;;;;;;;6.68;1.70;;;;;;;;;;5042676;28;20044;-72
2021/06/15 13:57:46;;;;;;;5.63;1.60;;;;;;;;;;5030002;28;20041;-72
2021/06/15 14:00:22;;;;;;;5.15;1.77;;;;;;;;;;5040631;28;20021;-72
2021/06/15 14:02:48;;;;;;;7.07;1.80;;;;;;;;;;5037955;28;20048;-73
2021/06/15 14:05:15;;;;;;;5.97;1.85;;;;;;;;;;5044299;28;20435;-73
2021/06/15 14:07:41;;;;;;;6.97;1.90;;;;;;;;;;5038187;28;20021;-73
2021/06/15 14:10:11;;;;;;;6.15;1.58;;;;;;;;;;5041685;28;20460;-73
2021/06/15 14:12:41;;;;;;;7.63;2.00;;;;;;;;;;5048373;28;20060;-72
2021/06/15 14:15:07;;;;;;;5.72;1.80;;;;;;;;;;5039262;28;20045;-73
2021/06/15 14:17:34;;;;;;;5.80;1.73;;;;;;;;;;5040914;28;20515;-73
2021/06/15 14:20:04;;;;;;;7.82;1.70;;;;;;;;;;5053802;28;20669;-73
2021/06/15 14:22:30;;;;;;;7.38;2.00;;;;;;;;;;5036488;28;20041;-72
2021/06/15 14:24:58;;;;;;;5.95;1.90;;;;;;;;;;5043224;28;20396;-72
2021/06/15 14:27:24;;;;;;;7.72;1.95;;;;;;;;;;5042279;28;20053;-72
2021/06/15 14:29:50;;;;;;;5.30;1.63;;;;;;;;;;5041858;28;20037;-72
2021/06/15 14:32:16;;;;;;;9.85;1.80;;;;;;;;;;5036497;28;20072;-72
2021/06/15 14:34:42;;;;;;;5.80;2.05;;;;;;;;;;5041158;28;20027;-72
2021/06/15 14:37:10;;;;;;;8.65;1.80;;;;;;;;;;5040090;28;20053;-73